createdAt,value
2022-11-22T00:00:44.434Z,2.67
2022-11-22T00:03:11.831Z,2.15
2022-11-22T00:05:39.226Z,2.50
2022-11-22T00:08:06.581Z,3.05
2022-11-22T00:10:34.152Z,2.85
2022-11-22T00:13:01.492Z,2.30
2022-11-22T00:15:29.690Z,2.55
2022-11-22T00:17:57.121Z,2.45
2022-11-22T00:20:24.449Z,2.38
2022-11-22T00:22:51.775Z,2.70
2022-11-22T00:25:19.089Z,2.88
2022-11-22T00:27:46.272Z,2.10
2022-11-22T00:30:13.555Z,2.58
2022-11-22T00:32:40.742Z,2.40
2022-11-22T00:35:08.431Z,2.78
2022-11-22T00:37:38.120Z,2.72
2022-11-22T00:40:06.547Z,2.42
2022-11-22T00:42:33.719Z,2.40
2022-11-22T00:45:00.894Z,3.22
2022-11-22T00:47:28.188Z,2.90
2022-11-22T00:49:55.433Z,2.85
2022-11-22T00:52:23.643Z,2.83
2022-11-22T00:54:54.736Z,2.42
2022-11-22T00:57:23.948Z,2.40
2022-11-22T00:59:51.143Z,3.13
2022-11-22T01:02:18.501Z,2.63
2022-11-22T01:04:45.755Z,2.45
2022-11-22T01:07:13.304Z,2.17
2022-11-22T01:09:40.542Z,2.33
2022-11-22T01:12:07.828Z,2.05
2022-11-22T01:14:35.120Z,1.95
2022-11-22T01:17:02.359Z,1.73
2022-11-22T01:19:29.848Z,2.00
2022-11-22T01:21:57.398Z,2.45
2022-11-22T01:24:24.683Z,2.08
2022-11-22T01:26:51.951Z,2.92
2022-11-22T01:29:19.263Z,2.08
2022-11-22T01:31:46.492Z,2.30
2022-11-22T01:34:13.785Z,2.25
2022-11-22T01:36:40.904Z,2.47
2022-11-22T01:39:08.200Z,2.28
2022-11-22T01:41:35.642Z,1.73
2022-11-22T01:44:22.550Z,2.30
2022-11-22T01:46:53.687Z,2.60
2022-11-22T01:49:29.481Z,2.30
2022-11-22T01:52:02.168Z,2.35
2022-11-22T01:54:33.243Z,1.92
2022-11-22T01:57:05.330Z,2.45
2022-11-22T01:59:34.242Z,2.50
2022-11-22T02:02:02.102Z,2.20
2022-11-22T02:04:30.612Z,2.30
2022-11-22T02:07:25.491Z,2.05
2022-11-22T02:09:53.273Z,1.88
2022-11-22T02:12:24.133Z,1.90
2022-11-22T02:14:52.081Z,2.15
2022-11-22T02:17:19.243Z,2.10
2022-11-22T02:19:48.413Z,1.58
2022-11-22T02:22:30.901Z,1.75
2022-11-22T02:25:20.165Z,2.20
2022-11-22T02:27:48.007Z,1.48
2022-11-22T02:30:15.535Z,2.20
2022-11-22T02:32:42.879Z,2.30
2022-11-22T02:35:29.027Z,1.88
2022-11-22T02:38:02.492Z,2.03
2022-11-22T02:40:32.899Z,1.83
2022-11-22T02:43:03.592Z,1.63
2022-11-22T02:45:30.967Z,2.33
2022-11-22T02:48:08.228Z,1.75
2022-11-22T02:50:35.595Z,2.05
2022-11-22T02:53:02.823Z,2.80
2022-11-22T02:55:30.115Z,1.90
2022-11-22T02:57:57.371Z,1.63
2022-11-22T03:00:24.740Z,2.00
2022-11-22T03:02:52.119Z,1.85
2022-11-22T03:05:19.343Z,1.90
2022-11-22T03:07:46.605Z,1.67
2022-11-22T03:10:14.004Z,1.92
2022-11-22T03:12:41.171Z,1.92
2022-11-22T03:15:08.805Z,1.95
2022-11-22T03:17:36.047Z,1.70
2022-11-22T03:20:04.204Z,1.65
2022-11-22T03:22:31.919Z,1.73
2022-11-22T03:24:59.505Z,1.58
2022-11-22T03:27:26.677Z,1.58
2022-11-22T03:29:53.889Z,2.00
2022-11-22T03:32:21.119Z,1.80
2022-11-22T03:34:48.490Z,2.05
2022-11-22T03:37:15.656Z,1.65
2022-11-22T03:39:43.173Z,1.63
2022-11-22T03:42:10.414Z,1.70
2022-11-22T03:44:37.667Z,1.77
2022-11-22T03:47:04.889Z,2.42
2022-11-22T03:49:32.568Z,1.75
2022-11-22T03:51:59.960Z,1.50
2022-11-22T03:54:27.149Z,1.58
2022-11-22T03:56:54.342Z,2.03
2022-11-22T03:59:21.734Z,2.10
2022-11-22T04:01:49.224Z,1.70
2022-11-22T04:04:16.581Z,1.50
2022-11-22T04:06:43.864Z,1.92
2022-11-22T04:09:11.263Z,1.75
2022-11-22T04:11:38.569Z,1.35
2022-11-22T04:14:24.336Z,1.58
2022-11-22T04:16:51.568Z,1.75
2022-11-22T04:19:18.876Z,1.65
2022-11-22T04:21:46.152Z,1.20
2022-11-22T04:24:31.877Z,1.42
2022-11-22T04:26:59.174Z,1.83
2022-11-22T04:29:26.384Z,1.70
2022-11-22T04:32:12.083Z,1.88
2022-11-22T04:34:39.308Z,1.60
2022-11-22T04:37:06.720Z,1.85
2022-11-22T04:39:34.215Z,1.70
2022-11-22T04:42:20.031Z,1.60
2022-11-22T04:44:47.386Z,1.50
2022-11-22T04:47:39.190Z,1.55
2022-11-22T04:50:28.693Z,1.40
2022-11-22T04:52:57.392Z,1.50
2022-11-22T04:55:25.011Z,1.27
2022-11-22T04:57:58.871Z,1.70
2022-11-22T05:00:28.484Z,1.55
2022-11-22T05:02:56.516Z,1.35
2022-11-22T05:05:24.550Z,1.77
2022-11-22T05:07:51.945Z,1.65
2022-11-22T05:10:25.789Z,1.40
2022-11-22T05:12:53.911Z,1.33
2022-11-22T05:15:21.172Z,1.38
2022-11-22T05:17:48.633Z,1.60
2022-11-22T05:20:15.901Z,1.67
2022-11-22T05:23:01.362Z,1.60
2022-11-22T05:25:28.892Z,1.88
2022-11-22T05:27:56.164Z,1.40
2022-11-22T05:30:23.422Z,1.38
2022-11-22T05:32:50.815Z,1.35
2022-11-22T05:35:18.126Z,1.48
2022-11-22T05:37:45.561Z,1.92
2022-11-22T05:40:13.125Z,1.30
2022-11-22T05:42:40.642Z,1.27
2022-11-22T05:45:08.719Z,2.40
2022-11-22T05:47:36.496Z,1.33
2022-11-22T05:50:04.166Z,1.35
2022-11-22T05:52:31.744Z,1.17
2022-11-22T05:54:59.000Z,1.50
2022-11-22T05:57:26.597Z,1.60
2022-11-22T05:59:54.507Z,1.02
2022-11-22T06:02:21.719Z,1.42
2022-11-22T06:04:49.127Z,1.35
2022-11-22T06:07:16.303Z,0.98
2022-11-22T06:09:43.614Z,1.00
2022-11-22T06:12:10.793Z,1.40
2022-11-22T06:14:42.926Z,0.95
2022-11-22T06:17:11.363Z,1.42
2022-11-22T06:19:38.510Z,1.30
2022-11-22T06:22:06.179Z,1.25
2022-11-22T06:24:33.367Z,1.30
2022-11-22T06:27:00.680Z,1.23
2022-11-22T06:29:28.025Z,1.20
2022-11-22T06:32:01.913Z,1.30
2022-11-22T06:34:30.643Z,1.38
2022-11-22T06:36:57.911Z,1.80
2022-11-22T06:39:25.103Z,1.55
2022-11-22T06:41:52.323Z,2.10
2022-11-22T06:44:19.592Z,1.60
2022-11-22T06:46:46.764Z,1.52
2022-11-22T06:49:15.062Z,1.65
2022-11-22T06:51:42.218Z,1.80
2022-11-22T06:54:12.448Z,2.00
2022-11-22T06:59:07.775Z,3.15
2022-11-22T07:01:37.371Z,2.53
2022-11-22T07:04:05.430Z,4.82
2022-11-22T07:06:34.632Z,1.75
2022-11-22T07:09:04.217Z,2.17
2022-11-22T07:11:32.110Z,1.48
2022-11-22T07:14:07.808Z,1.70
2022-11-22T07:16:39.180Z,1.80
2022-11-22T07:19:07.231Z,1.42
2022-11-22T07:21:35.031Z,1.90
2022-11-22T07:24:04.152Z,1.60
2022-11-22T07:26:31.451Z,2.33
2022-11-22T07:28:58.868Z,2.00
2022-11-22T07:31:26.544Z,1.60
2022-11-22T07:33:55.739Z,1.75
2022-11-22T07:36:23.403Z,1.52
2022-11-22T07:38:51.005Z,1.60
2022-11-22T07:41:19.712Z,1.40
2022-11-22T07:43:47.370Z,1.70
2022-11-22T07:46:19.817Z,1.40
2022-11-22T07:48:49.541Z,1.30
2022-11-22T07:51:16.997Z,1.95
2022-11-22T07:53:44.331Z,1.25
2022-11-22T07:56:11.555Z,1.38
2022-11-22T07:58:38.976Z,1.60
2022-11-22T08:01:09.155Z,1.40
2022-11-22T08:03:37.258Z,1.20
2022-11-22T08:06:06.543Z,1.08
2022-11-22T08:08:34.824Z,0.90
2022-11-22T08:11:02.341Z,1.30
2022-11-22T08:13:29.651Z,2.15
2022-11-22T08:16:05.056Z,1.60
2022-11-22T08:18:34.909Z,2.08
2022-11-22T08:21:04.182Z,1.60
2022-11-22T08:23:31.638Z,1.47
2022-11-22T08:25:59.606Z,1.55
2022-11-22T08:28:27.114Z,2.03
2022-11-22T08:31:06.245Z,2.17
2022-11-22T08:33:33.680Z,4.25
2022-11-22T08:36:01.084Z,3.72
2022-11-22T08:38:28.363Z,2.20
2022-11-22T08:40:58.311Z,2.30
2022-11-22T08:43:25.861Z,2.05
2022-11-22T08:45:57.458Z,2.13
2022-11-22T08:48:26.072Z,1.65
2022-11-22T08:50:55.325Z,2.10
2022-11-22T08:53:23.201Z,2.23
2022-11-22T08:55:50.545Z,2.70
2022-11-22T08:58:18.013Z,2.25
2022-11-22T09:00:45.292Z,1.95
2022-11-22T09:03:12.624Z,2.28
2022-11-22T09:08:28.885Z,2.95
2022-11-22T09:11:02.740Z,2.00
2022-11-22T09:13:30.442Z,1.90
2022-11-22T09:16:10.631Z,2.22
2022-11-22T09:21:10.138Z,3.75
2022-11-22T09:23:37.957Z,3.28
2022-11-22T09:26:07.958Z,2.05
2022-11-22T09:28:35.768Z,2.50
2022-11-22T09:31:11.362Z,2.55
2022-11-22T09:33:40.465Z,2.83
2022-11-22T09:36:28.168Z,2.47
2022-11-22T09:38:58.880Z,2.90
2022-11-22T09:41:46.311Z,3.28
2022-11-22T09:44:24.404Z,3.03
2022-11-22T09:46:56.543Z,2.75
2022-11-22T09:49:23.754Z,3.13
2022-11-22T09:52:07.970Z,2.75
2022-11-22T09:54:40.702Z,3.83
2022-11-22T09:57:13.533Z,2.63
2022-11-22T09:59:43.801Z,3.88
2022-11-22T10:02:20.649Z,3.22
2022-11-22T10:05:00.404Z,3.15
2022-11-22T10:07:30.577Z,3.10
2022-11-22T10:10:15.259Z,3.38
2022-11-22T10:13:09.399Z,2.95
2022-11-22T10:15:39.664Z,2.95
2022-11-22T10:18:17.396Z,2.95
2022-11-22T10:20:48.832Z,3.63
2022-11-22T10:23:26.358Z,2.90
2022-11-22T10:26:21.947Z,3.63
2022-11-22T10:29:12.202Z,3.38
2022-11-22T10:34:17.120Z,4.57
2022-11-22T10:37:13.475Z,3.22
2022-11-22T10:39:46.509Z,3.55
2022-11-22T10:42:38.490Z,4.18
2022-11-22T10:45:11.498Z,3.05
2022-11-22T10:48:07.489Z,3.47
2022-11-22T10:50:53.293Z,3.58
2022-11-22T10:53:39.458Z,3.00
2022-11-22T10:56:29.555Z,2.90
2022-11-22T10:59:25.703Z,4.00
2022-11-22T11:02:17.785Z,3.08
2022-11-22T11:04:46.084Z,2.73
2022-11-22T11:07:21.787Z,2.80
2022-11-22T11:10:26.276Z,2.58
2022-11-22T11:13:08.014Z,3.95
2022-11-22T11:15:38.625Z,3.90
2022-11-22T11:18:12.172Z,2.78
2022-11-22T11:20:42.377Z,3.08
2022-11-22T11:23:15.127Z,3.05
2022-11-22T11:25:44.713Z,3.47
2022-11-22T11:28:20.730Z,3.27
2022-11-22T11:31:08.165Z,2.75
2022-11-22T11:33:38.515Z,3.65
2022-11-22T11:36:07.435Z,3.67
2022-11-22T11:38:40.788Z,3.85
2022-11-22T11:41:38.644Z,3.20
2022-11-22T11:44:29.188Z,2.67
2022-11-22T11:46:57.659Z,3.88
2022-11-22T11:49:26.662Z,3.45
2022-11-22T11:51:55.404Z,3.95
2022-11-22T11:54:23.254Z,3.50
2022-11-22T11:57:01.439Z,3.17
2022-11-22T11:59:37.832Z,3.33
2022-11-22T12:02:23.182Z,3.22
2022-11-22T12:04:54.996Z,3.25
2022-11-22T12:07:35.066Z,4.07
2022-11-22T12:12:45.648Z,3.25
2022-11-22T12:15:20.664Z,3.72
2022-11-22T12:18:18.080Z,2.97
2022-11-22T12:21:13.869Z,7.45
2022-11-22T12:24:13.524Z,5.10
2022-11-22T12:26:46.591Z,3.83
2022-11-22T12:29:14.816Z,3.28
2022-11-22T12:32:12.079Z,5.63
2022-11-22T12:34:42.424Z,5.15
2022-11-22T12:37:15.103Z,4.70
2022-11-22T12:39:48.249Z,4.45
2022-11-22T12:42:37.157Z,3.83
2022-11-22T12:45:39.132Z,3.00
2022-11-22T12:48:12.522Z,3.28
2022-11-22T12:51:13.559Z,3.15
2022-11-22T12:53:42.874Z,3.22
2022-11-22T12:56:10.098Z,2.60
2022-11-22T12:58:55.753Z,2.60
2022-11-22T13:01:32.420Z,3.00
2022-11-22T13:04:03.529Z,2.95
2022-11-22T13:06:45.772Z,3.20
2022-11-22T13:09:18.203Z,2.70
2022-11-22T13:11:50.934Z,3.42
2022-11-22T13:14:21.657Z,3.00
2022-11-22T13:16:51.933Z,3.05
2022-11-22T13:19:23.040Z,3.08
2022-11-22T13:22:08.941Z,2.47
2022-11-22T13:25:02.382Z,2.83
2022-11-22T13:27:32.114Z,3.67
2022-11-22T13:30:01.353Z,3.08
2022-11-22T13:32:31.999Z,2.35
2022-11-22T13:35:24.104Z,3.22
2022-11-22T13:37:54.256Z,2.75
2022-11-22T13:42:48.572Z,3.20
2022-11-22T13:45:23.956Z,3.47
2022-11-22T13:47:51.672Z,3.17
2022-11-22T13:50:37.696Z,2.53
2022-11-22T13:53:17.166Z,3.20
2022-11-22T13:55:44.784Z,2.50
2022-11-22T13:58:23.937Z,2.78
2022-11-22T14:00:55.649Z,3.10
2022-11-22T14:03:35.280Z,2.90
2022-11-22T14:06:25.937Z,2.80
2022-11-22T14:09:36.234Z,2.47
2022-11-22T14:14:51.147Z,2.90
2022-11-22T14:17:30.223Z,2.90
2022-11-22T14:20:22.804Z,2.60
2022-11-22T14:23:18.901Z,2.90
2022-11-22T14:25:56.225Z,2.72
2022-11-22T14:29:04.668Z,2.72
2022-11-22T14:31:33.830Z,2.40
2022-11-22T14:34:21.273Z,2.65
2022-11-22T14:37:11.694Z,2.35
2022-11-22T14:39:44.999Z,2.83
2022-11-22T14:42:37.588Z,2.85
2022-11-22T14:45:10.701Z,2.35
2022-11-22T14:47:53.250Z,2.70
2022-11-22T14:50:26.015Z,2.88
2022-11-22T14:52:55.945Z,2.17
2022-11-22T14:55:30.083Z,2.72
2022-11-22T14:58:02.753Z,2.28
2022-11-22T15:01:13.027Z,2.67
2022-11-22T15:09:12.365Z,2.80
2022-11-22T15:09:51.036Z,2.63
2022-11-22T15:12:36.030Z,2.63
2022-11-22T15:59:42.592Z,2.78
2022-11-22T16:02:19.788Z,2.65
2022-11-22T16:06:03.470Z,3.00
2022-11-22T16:07:43.304Z,2.63
2022-11-22T16:10:16.821Z,2.78
2022-11-22T16:12:44.135Z,3.90
2022-11-22T16:15:28.228Z,3.05
2022-11-22T16:18:27.560Z,2.72
2022-11-22T16:21:13.970Z,2.33
2022-11-22T16:23:41.953Z,2.47
2022-11-22T16:26:24.964Z,2.38
2022-11-22T16:28:53.818Z,2.67
2022-11-22T16:31:31.400Z,2.65
2022-11-22T16:33:58.701Z,3.10
2022-11-22T16:36:29.274Z,2.50
2022-11-22T16:38:56.625Z,2.80
2022-11-22T16:41:28.534Z,3.17
2022-11-22T16:43:59.912Z,2.45
2022-11-22T16:46:27.460Z,2.70
2022-11-22T16:48:55.827Z,2.60
2022-11-22T16:51:25.001Z,2.58
2022-11-22T16:53:53.352Z,2.60
2022-11-22T16:56:21.614Z,2.60
2022-11-22T16:58:49.777Z,2.78
2022-11-22T17:01:20.158Z,3.40
2022-11-22T17:03:48.793Z,2.70
2022-11-22T17:06:18.970Z,3.33
2022-11-22T17:11:16.584Z,3.15
2022-11-22T17:13:44.342Z,2.80
2022-11-22T17:16:12.536Z,2.58
2022-11-22T17:18:40.037Z,3.72
2022-11-22T17:21:16.429Z,3.10
2022-11-22T17:23:44.008Z,3.75
2022-11-22T17:26:11.402Z,3.10
2022-11-22T17:28:38.648Z,3.60
2022-11-22T17:31:12.310Z,3.50
2022-11-22T17:33:39.553Z,3.03
2022-11-22T17:36:17.591Z,3.35
2022-11-22T17:38:44.894Z,2.90
2022-11-22T17:41:12.133Z,3.20
2022-11-22T17:43:39.611Z,2.80
2022-11-22T17:46:06.892Z,3.83
2022-11-22T17:48:34.360Z,3.58
2022-11-22T17:51:11.946Z,3.08
2022-11-22T17:53:39.699Z,3.63
2022-11-22T17:56:11.393Z,3.63
2022-11-22T17:58:40.086Z,3.85
2022-11-22T18:01:10.943Z,3.58
2022-11-22T18:03:39.901Z,3.60
2022-11-22T18:06:07.889Z,9.20
2022-11-22T18:08:35.337Z,4.20
2022-11-22T18:11:02.951Z,3.45
2022-11-22T18:13:33.427Z,3.33
2022-11-22T18:16:03.694Z,3.60
2022-11-22T18:21:19.862Z,3.53
2022-11-22T18:23:47.048Z,3.22
2022-11-22T18:26:38.395Z,3.50
2022-11-22T18:31:53.129Z,3.53
2022-11-22T18:34:21.670Z,3.17
2022-11-22T18:39:39.090Z,4.18
2022-11-22T18:42:10.949Z,3.95
2022-11-22T18:44:38.316Z,4.68
2022-11-22T18:47:05.675Z,5.07
2022-11-22T18:49:33.324Z,4.60
2022-11-22T18:52:00.836Z,4.45
2022-11-22T18:54:28.099Z,3.80
2022-11-22T18:56:55.376Z,3.55
2022-11-22T18:59:23.147Z,4.18
2022-11-22T19:01:50.331Z,3.92
2022-11-22T19:04:17.607Z,3.95
2022-11-22T19:06:45.098Z,3.85
2022-11-22T19:09:12.314Z,4.38
2022-11-22T19:11:40.187Z,4.40
2022-11-22T19:14:07.822Z,4.65
2022-11-22T19:16:35.167Z,5.88
2022-11-22T19:19:02.428Z,5.28
2022-11-22T19:21:30.309Z,19.42
2022-11-22T19:23:57.660Z,22.23
2022-11-22T19:26:27.282Z,14.63
2022-11-22T19:28:56.507Z,9.95
2022-11-22T19:31:25.956Z,8.63
2022-11-22T19:33:53.574Z,6.05
2022-11-22T19:36:26.360Z,5.32
2022-11-22T19:38:58.490Z,4.45
2022-11-22T19:41:26.799Z,5.78
2022-11-22T19:43:55.881Z,5.57
2022-11-22T19:46:23.936Z,6.18
2022-11-22T19:48:52.213Z,5.53
2022-11-22T19:51:19.784Z,4.88
2022-11-22T19:53:47.014Z,6.90
2022-11-22T19:56:16.534Z,7.47
2022-11-22T19:58:44.754Z,5.15
2022-11-22T20:01:13.330Z,4.15
2022-11-22T20:03:41.858Z,6.30
2022-11-22T20:06:11.840Z,5.43
2022-11-22T20:08:39.593Z,7.28
2022-11-22T20:11:12.773Z,5.15
2022-11-22T20:13:42.651Z,4.55
2022-11-22T20:16:14.061Z,11.68
2022-11-22T20:18:41.349Z,10.98
2022-11-22T20:21:10.258Z,5.10
2022-11-22T20:23:38.490Z,5.22
2022-11-22T20:26:11.915Z,4.57
2022-11-22T20:28:39.870Z,13.40
2022-11-22T20:31:15.168Z,8.25
2022-11-22T20:33:44.352Z,4.95
2022-11-22T20:36:14.053Z,5.10
2022-11-22T20:38:42.543Z,5.18
2022-11-22T20:41:11.398Z,4.95
2022-11-22T20:43:38.783Z,4.80
2022-11-22T20:46:08.811Z,6.80
2022-11-22T20:48:38.003Z,7.10
2022-11-22T20:51:08.116Z,5.22
2022-11-22T20:56:04.420Z,4.20
2022-11-22T20:58:32.560Z,5.45
2022-11-22T21:01:00.192Z,4.90
2022-11-22T21:03:27.470Z,4.93
2022-11-22T21:05:55.379Z,4.53
2022-11-22T21:08:23.056Z,4.40
2022-11-22T21:10:50.345Z,4.60
2022-11-22T21:13:17.662Z,4.90
2022-11-22T21:15:45.091Z,4.80
2022-11-22T21:18:27.600Z,4.63
2022-11-22T21:20:55.105Z,4.43
2022-11-22T21:23:22.262Z,5.03
2022-11-22T21:25:50.505Z,4.03
2022-11-22T21:28:17.868Z,4.05
2022-11-22T21:30:45.151Z,4.93
2022-11-22T21:33:12.332Z,5.50
2022-11-22T21:35:39.647Z,4.10
2022-11-22T21:38:07.089Z,6.22
2022-11-22T21:40:34.327Z,5.50
2022-11-22T21:43:01.506Z,4.18
2022-11-22T21:45:28.795Z,4.20
2022-11-22T21:47:56.115Z,4.40
2022-11-22T21:50:23.391Z,4.85
2022-11-22T21:52:50.595Z,4.88
2022-11-22T21:55:17.798Z,3.95
2022-11-22T21:57:44.973Z,4.60
2022-11-22T22:00:12.823Z,4.10
2022-11-22T22:02:40.044Z,4.28
2022-11-22T22:05:07.823Z,4.35
2022-11-22T22:07:52.266Z,4.30
2022-11-22T22:10:20.444Z,4.28
2022-11-22T22:12:50.873Z,4.22
2022-11-22T22:15:18.698Z,4.22
2022-11-22T22:17:45.961Z,3.92
2022-11-22T22:20:13.415Z,4.30
2022-11-22T22:22:40.665Z,4.72
2022-11-22T22:25:08.323Z,4.65
2022-11-22T22:27:39.078Z,4.75
2022-11-22T22:30:08.088Z,4.35
2022-11-22T22:32:35.954Z,4.82
2022-11-22T22:35:05.681Z,4.47
2022-11-22T22:37:35.189Z,3.75
2022-11-22T22:40:02.681Z,4.55
2022-11-22T22:42:29.930Z,3.90
2022-11-22T22:44:57.189Z,4.93
2022-11-22T22:47:24.520Z,3.85
2022-11-22T22:49:51.776Z,4.47
2022-11-22T22:52:19.007Z,3.92
2022-11-22T22:54:46.204Z,3.90
2022-11-22T22:57:13.428Z,3.78
2022-11-22T22:59:41.781Z,3.42
2022-11-22T23:02:08.942Z,3.83
2022-11-22T23:04:37.447Z,3.90
2022-11-22T23:07:04.678Z,3.78
2022-11-22T23:09:32.285Z,4.25
2022-11-22T23:12:11.768Z,4.28
2022-11-22T23:14:39.920Z,3.33
2022-11-22T23:17:08.599Z,3.53
2022-11-22T23:19:35.810Z,4.20
2022-11-22T23:22:03.361Z,3.88
2022-11-22T23:24:32.280Z,4.13
2022-11-22T23:26:59.844Z,4.07
2022-11-22T23:29:27.360Z,3.83
2022-11-22T23:31:54.628Z,4.13
2022-11-22T23:34:21.911Z,3.15
2022-11-22T23:36:49.169Z,3.95
2022-11-22T23:39:16.428Z,3.75
2022-11-22T23:41:45.040Z,4.45
2022-11-22T23:44:12.339Z,3.28
2022-11-22T23:46:39.644Z,4.45
2022-11-22T23:49:06.904Z,4.20
2022-11-22T23:51:35.336Z,3.85
2022-11-22T23:54:05.212Z,4.95
2022-11-22T23:56:34.430Z,4.07
2022-11-22T23:59:02.264Z,4.85
